Terminal Aerodrome Forecast
Issued by NWS Boise, ID

Home | Current Version | Previous Version | Text Only | Print | Product List | Glossary On
Versions: 1 2 3 4 5 6 7 8 9 10 11 12 13 14 15 16 17 18 19 20 21
000
FTUS45 KBOI 251638 AAB
TAFBOI
TAF AMD
KBOI 251638Z 2517/2612 14007KT 3SM -SN BR OVC035
      TEMPO 2517/2521 1SM -SN BR OVC020
     FM260900 31010KT 4SM -SN BR OVC020=

USA.gov is the U.S. government's official web portal to all federal, state and local government web resources and services.